createdAt,value
2022-08-14T00:02:27.245Z,4.68
2022-08-14T00:04:56.189Z,4.35
2022-08-14T00:07:25.937Z,4.72
2022-08-14T00:10:01.429Z,4.30
2022-08-14T00:12:48.294Z,4.65
2022-08-14T00:15:30.003Z,4.68
2022-08-14T00:18:07.006Z,4.63
2022-08-14T00:20:43.160Z,4.85
2022-08-14T00:23:16.361Z,4.55
2022-08-14T00:25:58.756Z,4.65
2022-08-14T00:28:36.703Z,4.55
2022-08-14T00:31:08.096Z,4.28
2022-08-14T00:33:50.776Z,4.20
2022-08-14T00:36:35.277Z,4.82
2022-08-14T00:39:14.238Z,4.63
2022-08-14T00:41:42.591Z,4.40
2022-08-14T00:44:11.432Z,4.88
2022-08-14T00:46:40.996Z,4.78
2022-08-14T00:49:11.610Z,4.88
2022-08-14T00:51:44.596Z,5.45
2022-08-14T00:54:21.840Z,4.60
2022-08-14T00:56:54.843Z,5.28
2022-08-14T00:59:25.364Z,4.95
2022-08-14T01:01:57.109Z,5.25
2022-08-14T01:04:38.337Z,4.90
2022-08-14T01:07:21.153Z,5.22
2022-08-14T01:09:52.676Z,5.03
2022-08-14T01:12:26.502Z,5.45
2022-08-14T01:14:58.315Z,5.18
2022-08-14T01:17:49.582Z,5.03
2022-08-14T01:20:39.625Z,5.38
2022-08-14T01:23:16.758Z,4.97
2022-08-14T01:25:49.055Z,4.85
2022-08-14T01:28:34.167Z,5.00
2022-08-14T01:31:09.625Z,4.60
2022-08-14T01:33:59.206Z,4.65
2022-08-14T01:36:29.830Z,5.03
2022-08-14T01:39:09.728Z,4.60
2022-08-14T01:41:41.934Z,4.82
2022-08-14T01:44:33.290Z,4.95
2022-08-14T01:47:05.854Z,5.18
2022-08-14T01:49:35.488Z,5.05
2022-08-14T01:52:13.429Z,5.05
2022-08-14T01:54:58.652Z,5.00
2022-08-14T01:57:49.599Z,5.05
2022-08-14T02:00:19.168Z,4.93
2022-08-14T02:02:47.408Z,4.45
2022-08-14T02:05:21.454Z,5.45
2022-08-14T02:07:55.581Z,5.22
2022-08-14T02:10:28.996Z,5.35
2022-08-14T02:12:59.406Z,5.50
2022-08-14T02:15:27.734Z,5.78
2022-08-14T02:17:55.705Z,5.25
2022-08-14T02:20:24.376Z,5.28
2022-08-14T02:22:54.793Z,5.57
2022-08-14T02:25:23.438Z,5.15
2022-08-14T02:28:23.733Z,5.13
2022-08-14T02:30:44.674Z,5.65
2022-08-14T02:33:14.149Z,5.47
2022-08-14T02:35:43.519Z,5.80
2022-08-14T02:38:30.232Z,5.90
2022-08-14T02:41:00.485Z,5.50
2022-08-14T02:43:36.741Z,5.80
2022-08-14T02:46:05.685Z,6.00
2022-08-14T02:49:01.406Z,5.10
2022-08-14T02:51:26.511Z,5.43
2022-08-14T02:53:59.049Z,4.95
2022-08-14T02:56:30.548Z,5.50
2022-08-14T02:59:18.563Z,5.32
2022-08-14T03:01:50.911Z,5.72
2022-08-14T03:04:23.001Z,4.97
2022-08-14T03:06:57.877Z,5.15
2022-08-14T03:10:24.770Z,5.68
2022-08-14T03:12:31.720Z,5.47
2022-08-14T03:15:16.563Z,5.78
2022-08-14T03:17:57.727Z,5.38
2022-08-14T03:20:28.327Z,5.80
2022-08-14T03:22:59.523Z,5.22
2022-08-14T03:25:34.042Z,5.78
2022-08-14T03:28:07.157Z,5.20
2022-08-14T03:30:39.835Z,5.90
2022-08-14T03:33:11.062Z,5.68
2022-08-14T03:35:59.759Z,5.60
2022-08-14T03:39:11.592Z,6.35
2022-08-14T03:41:22.975Z,5.60
2022-08-14T03:43:57.125Z,5.65
2022-08-14T03:46:51.975Z,6.10
2022-08-14T03:49:24.400Z,6.10
2022-08-14T03:51:57.700Z,5.60
2022-08-14T03:54:26.456Z,6.20
2022-08-14T03:56:54.981Z,5.97
2022-08-14T03:59:23.396Z,5.97
2022-08-14T04:01:57.859Z,6.40
2022-08-14T04:04:29.616Z,6.15
2022-08-14T04:07:00.184Z,6.97
2022-08-14T04:09:29.339Z,5.75
2022-08-14T04:11:58.297Z,6.00
2022-08-14T04:14:29.005Z,5.60
2022-08-14T04:16:58.813Z,6.10
2022-08-14T04:19:28.091Z,5.35
2022-08-14T04:22:03.740Z,5.53
2022-08-14T04:24:38.302Z,5.38
2022-08-14T04:27:09.634Z,6.28
2022-08-14T04:29:39.345Z,5.90
2022-08-14T04:33:00.365Z,6.00
2022-08-14T04:34:58.470Z,5.97
2022-08-14T04:37:45.190Z,5.93
2022-08-14T04:40:40.817Z,5.95
2022-08-14T04:43:38.427Z,6.20
2022-08-14T04:46:08.672Z,6.20
2022-08-14T04:48:43.254Z,6.00
2022-08-14T04:51:15.474Z,5.80
2022-08-14T04:53:46.080Z,6.97
2022-08-14T04:56:31.626Z,6.35
2022-08-14T04:59:10.208Z,6.13
2022-08-14T05:01:45.175Z,5.70
2022-08-14T05:04:19.984Z,5.82
2022-08-14T05:06:49.812Z,6.20
2022-08-14T05:11:49.867Z,6.03
2022-08-14T05:14:45.610Z,5.95
2022-08-14T05:17:10.800Z,5.80
2022-08-14T05:19:44.555Z,6.18
2022-08-14T05:22:29.159Z,5.78
2022-08-14T05:24:57.171Z,5.90
2022-08-14T05:27:26.143Z,6.55
2022-08-14T05:29:59.749Z,5.82
2022-08-14T05:32:28.449Z,6.43
2022-08-14T05:34:59.984Z,6.97
2022-08-14T05:37:30.775Z,6.35
2022-08-14T05:40:01.105Z,6.28
2022-08-14T05:42:34.049Z,5.30
2022-08-14T05:47:39.042Z,5.85
2022-08-14T05:50:17.588Z,6.47
2022-08-14T05:52:49.282Z,7.45
2022-08-14T05:55:21.979Z,6.25
2022-08-14T05:57:54.114Z,6.40
2022-08-14T06:00:28.519Z,6.03
2022-08-14T06:02:58.481Z,5.82
2022-08-14T06:05:30.013Z,6.03
2022-08-14T06:07:59.061Z,6.03
2022-08-14T06:10:28.059Z,5.40
2022-08-14T06:12:57.975Z,5.80
2022-08-14T06:15:30.410Z,6.30
2022-08-14T06:18:00.207Z,5.80
2022-08-14T06:20:31.520Z,6.60
2022-08-14T06:23:02.748Z,6.05
2022-08-14T06:25:31.605Z,6.10
2022-08-14T06:28:00.820Z,6.30
2022-08-14T06:30:45.727Z,6.13
2022-08-14T06:33:16.281Z,5.70
2022-08-14T06:35:49.830Z,6.90
2022-08-14T06:38:20.494Z,6.07
2022-08-14T06:43:27.079Z,6.22
2022-08-14T06:45:58.026Z,6.72
2022-08-14T06:48:29.015Z,7.38
2022-08-14T06:51:02.467Z,7.40
2022-08-14T06:53:31.455Z,6.63
2022-08-14T06:56:02.295Z,6.40
2022-08-14T06:58:32.131Z,6.28
2022-08-14T07:01:26.922Z,6.70
2022-08-14T07:04:24.067Z,6.90
2022-08-14T07:06:59.176Z,6.22
2022-08-14T07:09:44.349Z,6.93
2022-08-14T07:12:52.021Z,6.65
2022-08-14T07:15:05.399Z,6.95
2022-08-14T07:17:34.288Z,6.97
2022-08-14T07:20:02.558Z,6.90
2022-08-14T07:22:32.770Z,5.88
2022-08-14T07:25:08.989Z,6.78
2022-08-14T07:27:37.345Z,7.00
2022-08-14T07:30:33.716Z,6.93
2022-08-14T07:32:58.593Z,7.00
2022-08-14T07:35:30.320Z,7.00
2022-08-14T07:38:07.469Z,6.40
2022-08-14T07:40:36.765Z,6.50
2022-08-14T07:43:14.301Z,6.47
2022-08-14T07:45:43.273Z,6.35
2022-08-14T07:48:11.821Z,6.95
2022-08-14T07:50:45.500Z,6.47
2022-08-14T07:53:15.642Z,6.18
2022-08-14T07:55:45.308Z,6.05
2022-08-14T07:58:34.163Z,6.30
2022-08-14T08:01:02.578Z,6.05
2022-08-14T08:03:35.448Z,6.15
2022-08-14T08:06:04.109Z,6.20
2022-08-14T08:08:40.862Z,8.07
2022-08-14T08:11:14.837Z,7.30
2022-08-14T08:13:49.147Z,5.43
2022-08-14T08:16:24.458Z,5.63
2022-08-14T08:18:57.697Z,6.22
2022-08-14T08:21:33.343Z,7.28
2022-08-14T08:24:06.362Z,5.80
2022-08-14T08:26:34.894Z,5.85
2022-08-14T08:29:07.292Z,6.30
2022-08-14T08:31:36.505Z,5.20
2022-08-14T08:34:07.265Z,5.60
2022-08-14T08:36:43.102Z,5.53
2022-08-14T08:39:22.882Z,5.67
2022-08-14T08:41:54.118Z,5.75
2022-08-14T08:44:32.084Z,5.85
2022-08-14T08:47:05.669Z,5.07
2022-08-14T08:49:53.384Z,5.97
2022-08-14T08:52:31.209Z,5.90
2022-08-14T08:55:04.926Z,5.97
2022-08-14T08:57:37.601Z,5.53
2022-08-14T09:00:24.576Z,5.30
2022-08-14T09:02:57.751Z,6.03
2022-08-14T09:05:26.648Z,5.53
2022-08-14T09:07:56.722Z,6.03
2022-08-14T09:10:27.232Z,5.82
2022-08-14T09:12:58.681Z,5.03
2022-08-14T09:15:36.690Z,5.25
2022-08-14T09:18:11.649Z,5.40
2022-08-14T09:20:41.231Z,5.10
2022-08-14T09:23:11.318Z,4.80
2022-08-14T09:25:59.625Z,5.13
2022-08-14T09:28:29.818Z,4.72
2022-08-14T09:31:01.513Z,4.90
2022-08-14T09:33:57.521Z,5.40
2022-08-14T09:36:35.406Z,5.05
2022-08-14T09:39:22.960Z,4.57
2022-08-14T09:42:21.853Z,4.10
2022-08-14T09:45:15.320Z,4.00
2022-08-14T09:47:47.196Z,3.53
2022-08-14T09:50:26.049Z,3.55
2022-08-14T09:52:59.618Z,3.50
2022-08-14T09:55:41.497Z,3.15
2022-08-14T09:58:19.879Z,3.95
2022-08-14T10:00:53.947Z,3.42
2022-08-14T10:03:33.829Z,3.75
2022-08-14T10:06:07.211Z,3.28
2022-08-14T10:08:50.707Z,3.60
2022-08-14T10:11:23.573Z,3.47
2022-08-14T10:13:56.823Z,3.67
2022-08-14T10:16:32.990Z,3.58
2022-08-14T10:19:07.182Z,3.42
2022-08-14T10:21:38.937Z,3.40
2022-08-14T10:24:31.023Z,3.70
2022-08-14T10:27:06.495Z,3.10
2022-08-14T10:29:40.796Z,3.58
2022-08-14T10:32:17.440Z,3.63
2022-08-14T10:34:52.820Z,3.90
2022-08-14T10:37:23.177Z,3.58
2022-08-14T10:40:05.408Z,4.38
2022-08-14T10:42:40.547Z,3.15
2022-08-14T10:45:21.231Z,3.38
2022-08-14T10:48:07.664Z,3.40
2022-08-14T10:50:45.753Z,3.40
2022-08-14T10:53:15.305Z,3.63
2022-08-14T10:55:45.388Z,3.10
2022-08-14T10:58:15.066Z,3.55
2022-08-14T11:00:58.891Z,3.30
2022-08-14T11:03:56.431Z,3.88
2022-08-14T11:06:25.557Z,3.20
2022-08-14T11:08:55.806Z,3.40
2022-08-14T11:11:28.578Z,3.42
2022-08-14T11:14:09.397Z,3.45
2022-08-14T11:16:41.708Z,3.63
2022-08-14T11:19:25.147Z,3.60
2022-08-14T11:21:56.022Z,3.95
2022-08-14T11:24:54.182Z,3.30
2022-08-14T11:27:20.582Z,2.83
2022-08-14T11:29:52.742Z,3.42
2022-08-14T11:32:31.119Z,3.85
2022-08-14T11:35:01.569Z,4.07
2022-08-14T11:37:40.541Z,3.65
2022-08-14T11:40:28.525Z,4.45
2022-08-14T11:42:59.430Z,3.17
2022-08-14T11:45:34.292Z,3.65
2022-08-14T11:49:02.432Z,3.78
2022-08-14T11:51:13.822Z,3.70
2022-08-14T11:53:43.870Z,3.38
2022-08-14T11:56:13.961Z,3.27
2022-08-14T11:58:42.370Z,3.10
2022-08-14T12:01:10.818Z,3.17
2022-08-14T12:03:51.678Z,3.78
2022-08-14T12:06:28.842Z,3.42
2022-08-14T12:09:08.703Z,3.58
2022-08-14T12:11:47.239Z,3.30
2022-08-14T12:17:02.173Z,3.50
2022-08-14T12:19:33.793Z,3.25
2022-08-14T12:24:36.562Z,3.63
2022-08-14T12:27:08.144Z,3.47
2022-08-14T12:29:37.528Z,3.40
2022-08-14T12:32:12.551Z,3.45
2022-08-14T12:37:13.649Z,3.13
2022-08-14T12:39:41.854Z,3.60
2022-08-14T12:42:11.954Z,3.40
2022-08-14T12:44:59.880Z,3.30
2022-08-14T12:47:32.597Z,3.95
2022-08-14T12:50:02.444Z,3.45
2022-08-14T12:52:41.619Z,3.50
2022-08-14T12:55:22.455Z,3.30
2022-08-14T12:58:28.743Z,3.72
2022-08-14T13:01:14.254Z,3.40
2022-08-14T13:03:42.825Z,4.30
2022-08-14T13:06:15.660Z,3.60
2022-08-14T13:08:52.913Z,3.25
2022-08-14T13:11:25.720Z,3.63
2022-08-14T13:13:59.297Z,3.58
2022-08-14T13:16:38.581Z,3.55
2022-08-14T13:19:12.897Z,3.20
2022-08-14T13:22:04.846Z,3.05
2022-08-14T13:24:34.743Z,3.65
2022-08-14T13:27:05.200Z,3.47
2022-08-14T13:29:40.514Z,3.45
2022-08-14T13:32:10.441Z,3.17
2022-08-14T13:34:41.150Z,3.50
2022-08-14T13:37:11.688Z,3.30
2022-08-14T13:39:56.334Z,3.38
2022-08-14T13:45:01.357Z,3.20
2022-08-14T13:47:33.166Z,3.95
2022-08-14T13:50:04.798Z,3.50
2022-08-14T13:52:51.339Z,5.40
2022-08-14T13:55:31.408Z,2.88
2022-08-14T13:58:04.863Z,3.50
2022-08-14T14:00:53.571Z,2.83
2022-08-14T14:03:25.385Z,2.97
2022-08-14T14:05:59.067Z,2.80
2022-08-14T14:08:43.239Z,3.33
2022-08-14T14:11:15.874Z,3.38
2022-08-14T14:13:45.268Z,3.07
2022-08-14T14:16:26.510Z,3.65
2022-08-14T14:19:09.679Z,2.47
2022-08-14T14:21:40.348Z,3.47
2022-08-14T14:24:11.793Z,2.90
2022-08-14T14:26:47.237Z,2.85
2022-08-14T14:29:16.881Z,3.20
2022-08-14T14:31:48.455Z,2.53
2022-08-14T14:34:29.144Z,2.15
2022-08-14T14:37:04.558Z,3.10
2022-08-14T14:39:38.013Z,2.53
2022-08-14T14:42:27.872Z,2.85
2022-08-14T14:45:05.867Z,3.00
2022-08-14T14:47:35.161Z,3.15
2022-08-14T14:50:05.041Z,2.70
2022-08-14T14:52:37.138Z,3.00
2022-08-14T14:55:12.450Z,3.00
2022-08-14T15:00:19.590Z,3.10
2022-08-14T15:02:51.594Z,2.92
2022-08-14T15:05:20.725Z,2.80
2022-08-14T15:07:51.121Z,2.50
2022-08-14T15:10:27.928Z,2.60
2022-08-14T15:13:03.629Z,2.90
2022-08-14T15:15:32.646Z,2.45
2022-08-14T15:18:01.623Z,2.70
2022-08-14T15:20:31.197Z,2.70
2022-08-14T15:23:11.868Z,2.72
2022-08-14T15:25:42.179Z,2.58
2022-08-14T15:28:12.896Z,2.53
2022-08-14T15:30:42.069Z,2.65
2022-08-14T15:33:11.804Z,2.58
2022-08-14T15:35:44.849Z,2.65
2022-08-14T15:38:17.672Z,2.58
2022-08-14T15:40:56.199Z,2.50
2022-08-14T15:43:27.339Z,2.30
2022-08-14T15:45:59.271Z,2.40
2022-08-14T15:48:29.581Z,2.47
2022-08-14T15:50:58.492Z,2.85
2022-08-14T15:53:26.549Z,2.08
2022-08-14T15:56:01.226Z,2.50
2022-08-14T15:58:30.445Z,2.60
2022-08-14T16:01:31.190Z,2.70
2022-08-14T16:04:04.004Z,2.25
2022-08-14T16:06:35.699Z,2.42
2022-08-14T16:09:11.050Z,2.67
2022-08-14T16:11:47.549Z,2.42
2022-08-14T16:14:21.866Z,2.58
2022-08-14T16:16:59.810Z,2.55
2022-08-14T16:19:31.471Z,2.40
2022-08-14T16:22:57.215Z,2.50
2022-08-14T16:27:44.382Z,2.75
2022-08-14T16:30:20.741Z,2.38
2022-08-14T16:32:59.058Z,3.08
2022-08-14T16:35:42.489Z,2.78
2022-08-14T16:38:29.407Z,2.40
2022-08-14T16:40:24.277Z,2.40
2022-08-14T16:41:27.452Z,2.60
2022-08-14T16:44:02.453Z,2.38
2022-08-14T16:46:37.294Z,2.67
2022-08-14T16:49:08.093Z,2.50
2022-08-14T16:51:38.620Z,2.85
2022-08-14T16:54:33.833Z,2.65
2022-08-14T16:57:13.122Z,2.50
2022-08-14T16:59:52.581Z,3.38
2022-08-14T17:02:35.152Z,3.35
2022-08-14T17:05:21.002Z,3.33
2022-08-14T17:08:32.427Z,2.50
2022-08-14T17:11:11.159Z,2.92
2022-08-14T17:13:59.512Z,3.22
2022-08-14T17:16:35.501Z,3.30
2022-08-14T17:19:05.404Z,3.10
2022-08-14T17:21:37.353Z,3.58
2022-08-14T17:24:58.511Z,3.33
2022-08-14T17:26:57.384Z,3.95
2022-08-14T17:29:31.168Z,3.33
2022-08-14T17:32:03.374Z,3.33
2022-08-14T17:34:45.507Z,3.33
2022-08-14T17:37:25.793Z,4.30
2022-08-14T17:43:02.038Z,4.03
2022-08-14T17:45:51.375Z,4.45
2022-08-14T17:49:14.062Z,4.30
2022-08-14T17:51:23.688Z,4.45
2022-08-14T17:54:02.523Z,3.97
2022-08-14T17:56:32.980Z,3.75
2022-08-14T17:59:06.845Z,4.15
2022-08-14T18:01:45.865Z,3.72
2022-08-14T18:04:27.828Z,3.78
2022-08-14T18:07:16.572Z,4.40
2022-08-14T18:09:57.219Z,4.07
2022-08-14T18:12:36.634Z,4.32
2022-08-14T18:15:14.698Z,4.35
2022-08-14T18:17:52.809Z,4.80
2022-08-14T18:21:40.730Z,6.00
2022-08-14T18:23:14.204Z,4.07
2022-08-14T18:25:48.205Z,4.70
2022-08-14T18:28:18.255Z,4.68
2022-08-14T18:31:43.892Z,4.63
2022-08-14T18:34:32.130Z,4.22
2022-08-14T18:37:16.960Z,5.00
2022-08-14T18:40:02.996Z,4.25
2022-08-14T18:42:45.417Z,4.20
2022-08-14T18:45:18.950Z,4.10
2022-08-14T18:48:16.007Z,4.30
2022-08-14T18:50:52.390Z,4.22
2022-08-14T18:53:24.847Z,4.28
2022-08-14T18:56:01.961Z,4.03
2022-08-14T18:58:57.119Z,4.47
2022-08-14T19:01:29.774Z,4.15
2022-08-14T19:03:58.787Z,4.18
2022-08-14T19:06:56.685Z,4.55
2022-08-14T19:09:56.217Z,4.05
2022-08-14T19:12:56.772Z,4.03
2022-08-14T19:15:27.282Z,4.40
2022-08-14T19:18:14.652Z,4.50
2022-08-14T19:20:52.544Z,3.90
2022-08-14T19:23:42.380Z,3.67
2022-08-14T19:26:35.462Z,3.92
2022-08-14T19:29:37.920Z,4.45
2022-08-14T19:32:39.149Z,3.97
2022-08-14T19:35:55.521Z,4.05
2022-08-14T19:38:57.645Z,4.15
2022-08-14T19:41:33.898Z,3.75
2022-08-14T19:44:15.777Z,4.32
2022-08-14T19:47:00.053Z,4.43
2022-08-14T19:50:08.022Z,4.40
2022-08-14T19:52:26.460Z,4.80
2022-08-14T19:55:00.100Z,4.43
2022-08-14T19:57:30.792Z,5.47
2022-08-14T20:00:28.741Z,5.00
2022-08-14T20:03:09.900Z,4.72
2022-08-14T20:05:45.420Z,4.55
2022-08-14T20:10:59.769Z,4.40
2022-08-14T20:11:16.013Z,4.32
2022-08-14T20:14:01.949Z,4.70
2022-08-14T20:16:40.506Z,4.55
2022-08-14T20:19:28.794Z,5.00
2022-08-14T20:22:35.289Z,4.72
2022-08-14T20:24:47.530Z,5.15
2022-08-14T20:27:24.838Z,5.00
2022-08-14T20:33:01.374Z,4.80
2022-08-14T20:35:35.785Z,5.10
2022-08-14T20:38:31.160Z,5.40
2022-08-14T20:40:55.944Z,4.65
2022-08-14T20:43:44.579Z,5.22
2022-08-14T20:46:16.277Z,5.13
2022-08-14T20:48:58.239Z,5.20
2022-08-14T20:51:37.039Z,5.22
2022-08-14T20:54:07.415Z,4.85
2022-08-14T20:56:38.051Z,6.03
2022-08-14T20:59:18.993Z,5.43
2022-08-14T21:01:55.224Z,5.05
2022-08-14T21:04:28.158Z,5.20
2022-08-14T21:07:25.361Z,5.70
2022-08-14T21:10:05.458Z,5.20
2022-08-14T21:12:55.527Z,4.70
2022-08-14T21:15:32.310Z,4.85
2022-08-14T21:18:01.800Z,4.82
2022-08-14T21:20:29.780Z,5.45
2022-08-14T21:23:01.776Z,5.50
2022-08-14T21:25:31.567Z,5.13
2022-08-14T21:28:03.270Z,5.38
2022-08-14T21:30:46.875Z,5.80
2022-08-14T21:33:23.521Z,5.40
2022-08-14T21:35:54.953Z,5.32
2022-08-14T21:38:33.536Z,5.90
2022-08-14T21:41:41.762Z,5.25
2022-08-14T21:44:17.468Z,6.20
2022-08-14T21:46:49.742Z,5.28
2022-08-14T21:49:22.813Z,5.78
2022-08-14T21:52:00.987Z,5.22
2022-08-14T21:54:50.025Z,6.35
2022-08-14T21:58:44.501Z,5.18
2022-08-14T22:00:35.772Z,5.55
2022-08-14T22:03:04.429Z,6.07
2022-08-14T22:05:33.944Z,6.13
2022-08-14T22:08:07.363Z,6.07
2022-08-14T22:10:37.056Z,6.40
2022-08-14T22:13:05.383Z,6.43
2022-08-14T22:15:33.604Z,6.32
2022-08-14T22:18:04.201Z,6.22
2022-08-14T22:20:36.324Z,6.15
2022-08-14T22:23:08.553Z,5.97
2022-08-14T22:25:40.985Z,5.70
2022-08-14T22:28:12.993Z,6.35
2022-08-14T22:30:41.607Z,6.90
2022-08-14T22:33:13.286Z,6.85
2022-08-14T22:35:43.789Z,6.22
2022-08-14T22:38:35.665Z,6.20
2022-08-14T22:41:26.712Z,5.88
2022-08-14T22:43:50.061Z,6.78
2022-08-14T22:46:20.620Z,7.32
2022-08-14T22:48:50.946Z,6.50
2022-08-14T22:51:22.725Z,6.82
2022-08-14T22:53:53.104Z,6.35
2022-08-14T22:56:29.416Z,6.50
2022-08-14T22:59:00.130Z,6.68
2022-08-14T23:01:55.029Z,7.25
2022-08-14T23:04:34.795Z,6.80
2022-08-14T23:07:21.998Z,7.15
2022-08-14T23:09:56.498Z,6.18
2022-08-14T23:12:29.259Z,7.30
2022-08-14T23:14:59.925Z,7.37
2022-08-14T23:17:38.823Z,7.10
2022-08-14T23:20:19.014Z,7.82
2022-08-14T23:22:52.850Z,7.10
2022-08-14T23:28:34.417Z,7.55
2022-08-14T23:30:58.340Z,8.02
2022-08-14T23:33:28.759Z,7.70
2022-08-14T23:35:58.724Z,7.40
2022-08-14T23:38:30.353Z,7.32
2022-08-14T23:41:00.794Z,8.23
2022-08-14T23:43:31.161Z,7.63
2022-08-14T23:46:00.405Z,7.93
2022-08-14T23:48:29.373Z,7.53
2022-08-14T23:50:59.058Z,7.43
2022-08-14T23:53:48.070Z,7.97
2022-08-14T23:56:20.365Z,7.70
2022-08-14T23:59:00.996Z,8.18
